createdAt,value
2023-04-11T00:00:58.579Z,76897.91
2023-04-11T00:03:26.609Z,76904.03
2023-04-11T00:05:54.515Z,76901.97
2023-04-11T00:08:22.302Z,76895.88
2023-04-11T00:10:50.063Z,76904.03
2023-04-11T00:13:19.684Z,76901.97
2023-04-11T00:15:48.880Z,76895.88
2023-04-11T00:18:17.044Z,76891.78
2023-04-11T00:20:44.842Z,76897.91
2023-04-11T00:23:13.348Z,76897.91
2023-04-11T00:25:41.399Z,76901.97
2023-04-11T00:28:10.957Z,76910.16
2023-04-11T00:30:39.343Z,76901.97
2023-04-11T00:33:08.445Z,76899.94
2023-04-11T00:35:37.877Z,76897.91
2023-04-11T00:38:05.770Z,76895.88
2023-04-11T00:40:33.617Z,76893.81
2023-04-11T00:43:01.639Z,76897.91
2023-04-11T00:45:29.547Z,76895.88
2023-04-11T00:47:57.562Z,76893.81
2023-04-11T00:50:27.196Z,76893.81
2023-04-11T00:52:57.751Z,76893.81
2023-04-11T00:55:25.671Z,76901.97
2023-04-11T00:57:55.175Z,76904.03
2023-04-11T01:00:23.580Z,76906.06
2023-04-11T01:02:51.529Z,76899.94
2023-04-11T01:05:20.149Z,76910.16
2023-04-11T01:07:52.145Z,76914.22
2023-04-11T01:10:20.469Z,76910.16
2023-04-11T01:12:48.618Z,76899.94
2023-04-11T01:15:16.636Z,76897.91
2023-04-11T01:17:45.598Z,76893.81
2023-04-11T01:20:13.945Z,76883.63
2023-04-11T01:22:42.919Z,76885.66
2023-04-11T01:25:13.454Z,76889.75
2023-04-11T01:27:42.306Z,76889.75
2023-04-11T01:30:12.458Z,76901.97
2023-04-11T01:32:40.270Z,76906.06
2023-04-11T01:35:09.629Z,76906.06
2023-04-11T01:37:37.638Z,76901.97
2023-04-11T01:40:06.686Z,76897.91
2023-04-11T01:42:36.739Z,76895.88
2023-04-11T01:45:07.008Z,76891.78
2023-04-11T01:47:34.876Z,76885.66
2023-04-11T01:50:02.715Z,76881.59
2023-04-11T01:52:30.479Z,76873.44
2023-04-11T01:54:58.363Z,76877.50
2023-04-11T01:57:26.457Z,76869.34
2023-04-11T01:59:55.622Z,76863.25
2023-04-11T02:02:23.548Z,76861.19
2023-04-11T02:04:51.337Z,76853.03
2023-04-11T02:07:20.796Z,76851.00
2023-04-11T02:09:48.686Z,76851.00
2023-04-11T02:12:16.445Z,76844.88
2023-04-11T02:14:45.726Z,76848.97
2023-04-11T02:17:14.870Z,76844.88
2023-04-11T02:19:45.276Z,76840.81
2023-04-11T02:22:13.201Z,76832.66
2023-04-11T02:24:41.481Z,76840.81
2023-04-11T02:27:09.558Z,76844.88
2023-04-11T02:29:37.377Z,76830.63
2023-04-11T02:32:05.502Z,76830.63
2023-04-11T02:34:34.788Z,76824.50
2023-04-11T02:37:02.754Z,76816.34
2023-04-11T02:39:31.620Z,76808.19
2023-04-11T02:41:59.363Z,76797.97
2023-04-11T02:44:29.375Z,76783.72
2023-04-11T02:46:57.227Z,76779.63
2023-04-11T02:49:25.016Z,76775.56
2023-04-11T02:51:54.136Z,76771.47
2023-04-11T02:54:22.003Z,76767.41
2023-04-11T02:56:49.770Z,76773.50
2023-04-11T02:59:17.558Z,76773.50
2023-04-11T03:01:46.089Z,76777.59
2023-04-11T03:04:13.988Z,76773.50
2023-04-11T03:06:41.834Z,76771.47
2023-04-11T03:09:11.778Z,76775.56
2023-04-11T03:11:39.573Z,76773.50
2023-04-11T03:14:07.373Z,76773.50
2023-04-11T03:16:35.234Z,76771.47
2023-04-11T03:19:03.038Z,76771.47
2023-04-11T03:21:31.400Z,76771.47
2023-04-11T03:23:59.403Z,76775.56
2023-04-11T03:26:28.535Z,76773.50
2023-04-11T03:28:56.458Z,76775.56
2023-04-11T03:31:24.398Z,76767.41
2023-04-11T03:33:52.171Z,76755.16
2023-04-11T03:36:20.039Z,76761.28
2023-04-11T03:38:47.864Z,76763.31
2023-04-11T03:41:15.806Z,76765.34
2023-04-11T03:43:44.938Z,76763.31
2023-04-11T03:46:12.825Z,76759.25
2023-04-11T03:48:40.605Z,76771.47
2023-04-11T03:51:08.541Z,76767.41
2023-04-11T03:53:36.342Z,76767.41
2023-04-11T03:56:04.180Z,76763.31
2023-04-11T03:58:32.076Z,76759.25
2023-04-11T04:01:02.613Z,76759.25
2023-04-11T04:03:30.630Z,76759.25
2023-04-11T04:05:58.646Z,76755.16
2023-04-11T04:08:26.369Z,76744.97
2023-04-11T04:10:54.851Z,76736.81
2023-04-11T04:13:22.726Z,76744.97
2023-04-11T04:15:51.427Z,76751.09
2023-04-11T04:18:20.623Z,76730.69
2023-04-11T04:20:48.598Z,76730.69
2023-04-11T04:23:18.137Z,76726.63
2023-04-11T04:25:49.241Z,76726.63
2023-04-11T04:28:20.466Z,76738.84
2023-04-11T04:30:54.089Z,76738.84
2023-04-11T04:33:23.817Z,76734.78
2023-04-11T04:35:52.465Z,76738.84
2023-04-11T04:38:20.295Z,76734.78
2023-04-11T04:40:50.459Z,76730.69
2023-04-11T04:43:23.633Z,76724.56
2023-04-11T04:45:51.815Z,76714.38
2023-04-11T04:48:19.655Z,76714.38
2023-04-11T04:50:48.785Z,76698.06
2023-04-11T04:53:16.561Z,76685.81
2023-04-11T04:55:44.314Z,76679.72
2023-04-11T04:58:12.079Z,76677.69
2023-04-11T05:00:40.205Z,76685.81
2023-04-11T05:03:08.773Z,76681.75
2023-04-11T05:05:36.730Z,76673.59
2023-04-11T05:08:06.278Z,76673.59
2023-04-11T05:10:34.028Z,76673.59
2023-04-11T05:13:01.763Z,76669.53
2023-04-11T05:15:29.537Z,76665.44
2023-04-11T05:17:57.518Z,76665.44
2023-04-11T05:20:27.020Z,76640.97
2023-04-11T05:22:54.825Z,76632.81
2023-04-11T05:25:23.886Z,76624.66
2023-04-11T05:27:51.603Z,76618.53
2023-04-11T05:30:19.478Z,76618.53
2023-04-11T05:32:47.748Z,76616.50
2023-04-11T05:35:15.681Z,76612.41
2023-04-11T05:37:44.888Z,76604.28
2023-04-11T05:40:13.191Z,76594.06
2023-04-11T05:42:42.297Z,76569.59
2023-04-11T05:45:11.389Z,76559.41
2023-04-11T05:47:39.200Z,76549.22
2023-04-11T05:50:08.528Z,76547.16
2023-04-11T05:52:36.325Z,76539.00
2023-04-11T05:55:04.529Z,76522.69
2023-04-11T05:57:32.372Z,76510.47
2023-04-11T06:00:06.876Z,76506.38
2023-04-11T06:02:34.910Z,76498.22
2023-04-11T06:05:03.965Z,76486.00
2023-04-11T06:07:32.658Z,76465.63
2023-04-11T06:10:00.631Z,76445.22
2023-04-11T06:12:29.336Z,76437.06
2023-04-11T06:14:57.128Z,76432.97
2023-04-11T06:17:26.422Z,76426.88
2023-04-11T06:19:54.270Z,76416.69
2023-04-11T06:22:22.097Z,76414.63
2023-04-11T06:24:49.973Z,76410.56
2023-04-11T06:27:17.937Z,76402.41
2023-04-11T06:29:45.717Z,76400.38
2023-04-11T06:32:13.734Z,76394.25
2023-04-11T06:34:43.256Z,76379.97
2023-04-11T06:37:11.017Z,76373.84
2023-04-11T06:39:38.863Z,76353.47
2023-04-11T06:42:06.750Z,76335.13
2023-04-11T06:44:34.536Z,76318.81
2023-04-11T06:47:02.369Z,76310.66
2023-04-11T06:49:31.307Z,76290.25
2023-04-11T06:52:00.462Z,76278.03
2023-04-11T06:54:28.242Z,76269.88
2023-04-11T06:56:57.221Z,76251.53
2023-04-11T06:59:25.031Z,76245.41
2023-04-11T07:01:52.970Z,76241.31
2023-04-11T07:04:21.017Z,76241.31
2023-04-11T07:06:48.919Z,76253.56
2023-04-11T07:09:18.027Z,76253.56
2023-04-11T07:11:46.260Z,76265.78
2023-04-11T07:14:14.101Z,76267.84
2023-04-11T07:16:41.915Z,76273.94
2023-04-11T07:19:09.791Z,76278.03
2023-04-11T07:21:38.273Z,76278.03
2023-04-11T07:24:06.562Z,76286.19
2023-04-11T07:26:38.575Z,76290.25
2023-04-11T07:29:09.129Z,76288.22
2023-04-11T07:31:38.400Z,76292.28
2023-04-11T07:34:06.414Z,76290.25
2023-04-11T07:36:34.933Z,76286.19
2023-04-11T07:39:04.385Z,76276.00
2023-04-11T07:41:32.174Z,76265.78
2023-04-11T07:44:01.571Z,76265.78
2023-04-11T07:46:29.373Z,76269.88
2023-04-11T07:48:57.122Z,76253.56
2023-04-11T07:51:24.894Z,76245.41
2023-04-11T07:53:52.790Z,76233.16
2023-04-11T07:56:20.875Z,76233.16
2023-04-11T07:58:48.624Z,76220.94
2023-04-11T08:01:25.789Z,76220.94
2023-04-11T08:03:55.810Z,76216.84
2023-04-11T08:06:24.367Z,76214.81
2023-04-11T08:08:52.330Z,76200.56
2023-04-11T08:11:20.092Z,76196.47
2023-04-11T08:13:47.966Z,76204.63
2023-04-11T08:16:16.262Z,76196.47
2023-04-11T08:18:45.644Z,76184.25
2023-04-11T08:21:13.854Z,76188.31
2023-04-11T08:23:42.410Z,76178.13
2023-04-11T08:26:11.871Z,76165.88
2023-04-11T08:28:42.450Z,76165.88
2023-04-11T08:31:13.234Z,76151.63
2023-04-11T08:33:41.532Z,76145.50
2023-04-11T08:36:11.800Z,76151.63
2023-04-11T08:38:40.925Z,76141.41
2023-04-11T08:41:08.974Z,76139.38
2023-04-11T08:43:37.274Z,76127.16
2023-04-11T08:46:05.697Z,76114.91
2023-04-11T08:48:33.572Z,76094.53
2023-04-11T08:51:01.451Z,76082.28
2023-04-11T08:53:31.505Z,76066.00
2023-04-11T08:55:59.935Z,76037.44
2023-04-11T08:58:27.781Z,76019.09
2023-04-11T09:00:55.568Z,76006.88
2023-04-11T09:03:23.496Z,75992.59
2023-04-11T09:05:51.530Z,75992.59
2023-04-11T09:08:20.026Z,75972.22
2023-04-11T09:10:49.212Z,75964.06
2023-04-11T09:13:22.557Z,75939.59
2023-04-11T09:16:05.722Z,75935.50
2023-04-11T09:18:34.782Z,75911.03
2023-04-11T09:21:04.461Z,75902.88
2023-04-11T09:23:32.469Z,75913.09
2023-04-11T09:26:01.693Z,75904.94
2023-04-11T09:28:39.973Z,75909.00
2023-04-11T09:31:09.620Z,75894.75
2023-04-11T09:33:37.487Z,75882.50
2023-04-11T09:36:20.678Z,75862.13
2023-04-11T09:38:48.527Z,75839.69
2023-04-11T09:41:30.871Z,75833.56
2023-04-11T09:43:58.870Z,75825.41
2023-04-11T09:46:27.008Z,75817.25
2023-04-11T09:48:56.207Z,75821.34
2023-04-11T09:53:56.223Z,75817.25
2023-04-11T09:56:26.647Z,75825.41
2023-04-11T09:58:56.484Z,75817.25
2023-04-11T10:01:25.511Z,75813.19
2023-04-11T10:03:54.294Z,75821.34
2023-04-11T10:06:31.551Z,75809.13
2023-04-11T10:09:08.114Z,75800.97
2023-04-11T10:11:37.665Z,75778.53
2023-04-11T10:14:05.535Z,75762.22
2023-04-11T10:16:34.497Z,75768.34
2023-04-11T10:19:25.735Z,75780.56
2023-04-11T10:21:53.620Z,75786.69
2023-04-11T10:24:22.192Z,75798.91
2023-04-11T10:26:53.084Z,75805.03
2023-04-11T10:29:51.216Z,75800.97
2023-04-11T10:32:24.411Z,75805.03
2023-04-11T10:35:20.905Z,75823.38
2023-04-11T10:37:49.097Z,75825.41
2023-04-11T10:40:20.388Z,75823.38
2023-04-11T10:42:49.633Z,75839.69
2023-04-11T10:45:19.251Z,75849.88
2023-04-11T10:48:03.383Z,75853.97
2023-04-11T10:50:42.920Z,75860.06
2023-04-11T10:53:36.459Z,75866.19
2023-04-11T10:56:04.577Z,75870.28
2023-04-11T10:58:38.813Z,75870.28
2023-04-11T11:01:25.775Z,75882.50
2023-04-11T11:04:02.530Z,75886.56
2023-04-11T11:06:31.035Z,75884.53
2023-04-11T11:08:59.667Z,75882.50
2023-04-11T11:11:27.407Z,75870.28
2023-04-11T11:13:57.087Z,75849.88
2023-04-11T11:16:26.558Z,75845.81
2023-04-11T11:18:55.782Z,75825.41
2023-04-11T11:21:28.406Z,75805.03
2023-04-11T11:23:58.658Z,75784.66
2023-04-11T11:26:37.808Z,75768.34
2023-04-11T11:29:07.058Z,75756.09
2023-04-11T11:31:39.468Z,75727.56
2023-04-11T11:36:42.192Z,75658.25
2023-04-11T11:39:11.496Z,75646.03
2023-04-11T11:41:41.256Z,75639.91
2023-04-11T11:44:22.607Z,75641.94
2023-04-11T11:47:02.071Z,75654.19
2023-04-11T11:49:44.231Z,75650.09
2023-04-11T11:52:12.143Z,75627.69
2023-04-11T11:54:47.096Z,75599.13
2023-04-11T11:57:22.781Z,75603.22
2023-04-11T11:59:56.168Z,75617.50
2023-04-11T12:02:26.112Z,75633.78
2023-04-11T12:04:59.938Z,75658.25
2023-04-11T12:07:32.427Z,75678.63
2023-04-11T12:10:01.156Z,75694.94
2023-04-11T12:12:36.328Z,75711.25
2023-04-11T12:15:11.643Z,75731.66
2023-04-11T12:17:39.817Z,75735.72
2023-04-11T12:20:08.863Z,75739.81
2023-04-11T12:22:36.639Z,75752.03
2023-04-11T12:25:08.897Z,75760.19
2023-04-11T12:27:38.087Z,75752.03
2023-04-11T12:30:08.939Z,75739.81
2023-04-11T12:32:37.143Z,75739.81
2023-04-11T12:35:07.014Z,75727.56
2023-04-11T12:37:35.535Z,75709.22
2023-04-11T12:40:07.029Z,75690.88
2023-04-11T12:42:39.054Z,75674.56
2023-04-11T12:45:16.032Z,75666.41
2023-04-11T12:47:44.420Z,75670.50
2023-04-11T12:50:12.609Z,75670.50
2023-04-11T12:52:40.686Z,75676.59
2023-04-11T12:55:09.858Z,75678.63
2023-04-11T12:57:37.752Z,75674.56
2023-04-11T13:00:08.179Z,75674.56
2023-04-11T13:02:43.272Z,75686.78
2023-04-11T13:05:15.077Z,75723.50
2023-04-11T13:07:44.826Z,75723.50
2023-04-11T13:10:13.801Z,75747.94
2023-04-11T13:12:44.323Z,75764.25
2023-04-11T13:15:13.913Z,75762.22
2023-04-11T13:17:43.541Z,75764.25
2023-04-11T13:20:13.612Z,75756.09
2023-04-11T13:22:42.903Z,75760.19
2023-04-11T13:25:12.009Z,75756.09
2023-04-11T13:27:40.221Z,75758.16
2023-04-11T13:30:10.118Z,75739.81
2023-04-11T13:32:37.969Z,75735.72
2023-04-11T13:35:08.273Z,75717.38
2023-04-11T13:37:36.194Z,75715.34
2023-04-11T13:40:11.328Z,75707.19
2023-04-11T13:42:39.287Z,75680.69
2023-04-11T13:45:07.981Z,75666.41
2023-04-11T13:47:38.374Z,75654.19
2023-04-11T13:50:09.815Z,75633.78
2023-04-11T13:52:37.815Z,75609.34
2023-04-11T13:55:06.613Z,75597.09
2023-04-11T13:57:34.418Z,75576.72
2023-04-11T14:00:05.366Z,75564.47
2023-04-11T14:02:33.282Z,75574.69
2023-04-11T14:05:01.135Z,75570.59
2023-04-11T14:07:30.579Z,75597.09
2023-04-11T14:09:58.313Z,75613.41
2023-04-11T14:12:27.450Z,75609.34
2023-04-11T14:14:55.439Z,75637.88
2023-04-11T14:17:23.206Z,75641.94
2023-04-11T14:19:51.171Z,75662.34
2023-04-11T14:22:18.978Z,75662.34
2023-04-11T14:24:48.192Z,75660.28
2023-04-11T14:27:15.967Z,75654.19
2023-04-11T14:29:43.732Z,75666.41
2023-04-11T14:32:11.702Z,75654.19
2023-04-11T14:34:39.586Z,75648.06
2023-04-11T14:37:07.666Z,75652.13
2023-04-11T14:39:35.539Z,75648.06
2023-04-11T14:42:04.880Z,75650.09
2023-04-11T14:44:32.680Z,75652.13
2023-04-11T14:47:00.465Z,75666.41
2023-04-11T14:49:28.299Z,75664.38
2023-04-11T14:51:56.098Z,75662.34
2023-04-11T14:54:24.151Z,75672.53
2023-04-11T14:56:52.393Z,75690.88
2023-04-11T14:59:22.098Z,75707.19
2023-04-11T15:01:49.959Z,75719.41
2023-04-11T15:04:18.046Z,75739.81
2023-04-11T15:06:45.927Z,75739.81
2023-04-11T15:09:13.657Z,75752.03
2023-04-11T15:11:41.442Z,75762.22
2023-04-11T15:14:09.192Z,75774.47
2023-04-11T15:16:38.288Z,75784.66
2023-04-11T15:19:06.181Z,75796.88
2023-04-11T15:21:33.960Z,75798.91
2023-04-11T15:24:06.487Z,75788.72
2023-04-11T15:26:34.466Z,75780.56
2023-04-11T15:29:02.222Z,75776.50
2023-04-11T15:31:30.737Z,75784.66
2023-04-11T15:34:03.769Z,75792.81
2023-04-11T15:36:31.653Z,75798.91
2023-04-11T15:39:00.632Z,75796.88
2023-04-11T15:41:28.405Z,75788.72
2023-04-11T15:43:56.533Z,75776.50
2023-04-11T15:46:27.122Z,75780.56
2023-04-11T15:48:54.993Z,75766.31
2023-04-11T15:51:24.642Z,75756.09
2023-04-11T15:53:52.706Z,75743.88
2023-04-11T15:56:20.466Z,75731.66
2023-04-11T15:58:49.158Z,75731.66
2023-04-11T16:01:25.537Z,75723.50
2023-04-11T16:03:53.815Z,75731.66
2023-04-11T16:06:22.495Z,75737.75
2023-04-11T16:08:52.041Z,75723.50
2023-04-11T16:11:19.813Z,75743.88
2023-04-11T16:13:47.716Z,75745.91
2023-04-11T16:16:15.607Z,75747.94
2023-04-11T16:18:43.408Z,75756.09
2023-04-11T16:21:15.763Z,75747.94
2023-04-11T16:23:43.704Z,75756.09
2023-04-11T16:26:12.863Z,75768.34
2023-04-11T16:28:40.744Z,75792.81
2023-04-11T16:31:09.348Z,75817.25
2023-04-11T16:33:37.259Z,75837.66
2023-04-11T16:36:05.687Z,75849.88
2023-04-11T16:38:33.487Z,75882.50
2023-04-11T16:41:01.603Z,75894.75
2023-04-11T16:43:30.701Z,75900.84
2023-04-11T16:45:58.568Z,75921.25
2023-04-11T16:48:26.590Z,75927.34
2023-04-11T16:50:54.396Z,75935.50
2023-04-11T16:53:22.230Z,75951.81
2023-04-11T16:55:50.456Z,75957.94
2023-04-11T16:58:18.381Z,75955.91
2023-04-11T17:00:49.079Z,75955.91
2023-04-11T17:03:18.148Z,75964.06
2023-04-11T17:05:46.748Z,75974.25
2023-04-11T17:08:15.666Z,75976.28
2023-04-11T17:10:44.153Z,75931.44
2023-04-11T17:13:12.680Z,75943.66
2023-04-11T17:15:40.936Z,75980.34
2023-04-11T17:18:10.190Z,75998.72
2023-04-11T17:20:37.994Z,75990.56
2023-04-11T17:23:05.784Z,76004.81
2023-04-11T17:25:33.623Z,76012.97
2023-04-11T17:28:01.489Z,76074.16
2023-04-11T17:30:30.204Z,76114.91
2023-04-11T17:32:58.211Z,76135.31
2023-04-11T17:35:28.464Z,76129.19
2023-04-11T17:37:56.266Z,76133.25
2023-04-11T17:40:24.088Z,76133.25
2023-04-11T17:42:52.035Z,76137.34
2023-04-11T17:45:20.520Z,76143.47
2023-04-11T17:47:48.567Z,76141.41
2023-04-11T17:50:16.990Z,76127.16
2023-04-11T17:52:47.494Z,76119.00
2023-04-11T17:55:19.104Z,76125.13
2023-04-11T17:57:48.995Z,76123.06
2023-04-11T18:00:23.116Z,76127.16
2023-04-11T18:02:52.772Z,76123.06
2023-04-11T18:05:24.353Z,76127.16
2023-04-11T18:07:56.478Z,76147.53
2023-04-11T18:10:25.870Z,76169.97
2023-04-11T18:12:55.378Z,76169.97
2023-04-11T18:15:23.617Z,76188.31
2023-04-11T18:17:52.234Z,76216.84
2023-04-11T18:20:20.553Z,76206.66
2023-04-11T18:22:51.558Z,76216.84
2023-04-11T18:25:21.300Z,76206.66
2023-04-11T18:27:49.269Z,76222.97
2023-04-11T18:30:18.034Z,76227.06
2023-04-11T18:32:49.487Z,76231.13
2023-04-11T18:35:18.343Z,76233.16
2023-04-11T18:37:46.106Z,76249.47
2023-04-11T18:40:15.701Z,76261.72
2023-04-11T18:42:47.375Z,76278.03
2023-04-11T18:45:17.965Z,76282.09
2023-04-11T18:47:46.402Z,76282.09
2023-04-11T18:50:14.851Z,76286.19
2023-04-11T18:52:44.578Z,76302.50
2023-04-11T18:55:13.226Z,76306.56
2023-04-11T18:57:42.212Z,76312.69
2023-04-11T19:00:18.582Z,76322.88
2023-04-11T19:02:50.322Z,76326.97
2023-04-11T19:05:19.254Z,76326.97
2023-04-11T19:07:47.336Z,76331.03
2023-04-11T19:10:15.116Z,76331.03
2023-04-11T19:12:42.926Z,76339.19
2023-04-11T19:15:13.438Z,76343.28
2023-04-11T19:17:41.410Z,76345.31
2023-04-11T19:20:12.568Z,76335.13
2023-04-11T19:22:41.301Z,76329.00
2023-04-11T19:25:11.508Z,76324.91
2023-04-11T19:27:41.408Z,76318.81
2023-04-11T19:30:13.766Z,76318.81
2023-04-11T19:32:43.735Z,76314.72
2023-04-11T19:35:12.420Z,76314.72
2023-04-11T19:37:40.878Z,76314.72
2023-04-11T19:40:11.471Z,76314.72
2023-04-11T19:42:39.942Z,76312.69
2023-04-11T19:45:09.631Z,76320.84
2023-04-11T19:47:40.143Z,76326.97
2023-04-11T19:50:09.008Z,76329.00
2023-04-11T19:52:36.777Z,76335.13
2023-04-11T19:55:04.949Z,76331.03
2023-04-11T19:57:32.813Z,76333.06
2023-04-11T20:00:00.660Z,76324.91
2023-04-11T20:02:28.633Z,76329.00
2023-04-11T20:04:58.254Z,76324.91
2023-04-11T20:07:26.124Z,76324.91
2023-04-11T20:09:53.943Z,76318.81
2023-04-11T20:12:21.739Z,76333.06
2023-04-11T20:14:49.524Z,76335.13
2023-04-11T20:17:17.314Z,76349.38
2023-04-11T20:19:47.506Z,76359.59
2023-04-11T20:22:18.449Z,76371.81
2023-04-11T20:24:47.088Z,76371.81
2023-04-11T20:27:14.998Z,76369.78
2023-04-11T20:29:43.006Z,76371.81
2023-04-11T20:32:11.034Z,76388.13
2023-04-11T20:34:38.766Z,76386.09
2023-04-11T20:37:06.970Z,76390.16
2023-04-11T20:39:36.437Z,76392.22
2023-04-11T20:42:04.361Z,76398.31
2023-04-11T20:44:34.157Z,76390.16
2023-04-11T20:47:01.938Z,76388.13
2023-04-11T20:49:31.813Z,76379.97
2023-04-11T20:52:00.084Z,76371.81
2023-04-11T20:54:28.399Z,76375.91
2023-04-11T20:56:57.521Z,76379.97
2023-04-11T20:59:26.268Z,76379.97
2023-04-11T21:01:54.178Z,76363.66
2023-04-11T21:04:23.409Z,76367.75
2023-04-11T21:06:51.608Z,76369.78
2023-04-11T21:09:20.535Z,76367.75
2023-04-11T21:11:48.303Z,76371.81
2023-04-11T21:14:17.398Z,76371.81
2023-04-11T21:16:47.365Z,76371.81
2023-04-11T21:19:15.132Z,76365.69
2023-04-11T21:21:42.925Z,76367.75
2023-04-11T21:24:10.779Z,76363.66
2023-04-11T21:26:38.640Z,76375.91
2023-04-11T21:29:06.408Z,76371.81
2023-04-11T21:31:35.629Z,76363.66
2023-04-11T21:34:03.450Z,76367.75
2023-04-11T21:36:31.651Z,76371.81
2023-04-11T21:38:59.458Z,76367.75
2023-04-11T21:41:28.000Z,76379.97
2023-04-11T21:43:55.995Z,76379.97
2023-04-11T21:46:24.000Z,76384.06
2023-04-11T21:48:53.162Z,76388.13
2023-04-11T21:51:21.343Z,76388.13
2023-04-11T21:53:49.156Z,76384.06
2023-04-11T21:56:17.159Z,76384.06
2023-04-11T21:58:44.945Z,76375.91
2023-04-11T22:01:12.758Z,76384.06
2023-04-11T22:03:41.472Z,76404.44
2023-04-11T22:06:12.078Z,76400.38
2023-04-11T22:08:39.936Z,76398.31
2023-04-11T22:11:10.236Z,76412.59
2023-04-11T22:13:39.630Z,76416.69
2023-04-11T22:16:10.702Z,76424.84
2023-04-11T22:18:46.720Z,76412.59
2023-04-11T22:21:19.274Z,76416.69
2023-04-11T22:23:48.592Z,76437.06
2023-04-11T22:26:17.505Z,76435.03
2023-04-11T22:28:45.481Z,76426.88
2023-04-11T22:31:14.146Z,76428.91
2023-04-11T22:33:41.962Z,76428.91
2023-04-11T22:36:10.633Z,76420.75
2023-04-11T22:38:40.279Z,76424.84
2023-04-11T22:41:14.804Z,76428.91
2023-04-11T22:43:42.697Z,76420.75
2023-04-11T22:46:11.100Z,76424.84
2023-04-11T22:48:38.963Z,76424.84
2023-04-11T22:51:07.433Z,76437.06
2023-04-11T22:53:42.206Z,76424.84
2023-04-11T22:56:11.738Z,76432.97
2023-04-11T22:58:40.251Z,76445.22
2023-04-11T23:01:12.238Z,76447.25
2023-04-11T23:03:40.240Z,76469.69
2023-04-11T23:06:08.799Z,76479.88
2023-04-11T23:08:37.099Z,76486.00
2023-04-11T23:11:05.101Z,76502.31
2023-04-11T23:13:34.264Z,76498.22
2023-04-11T23:16:02.427Z,76498.22
2023-04-11T23:18:30.232Z,76516.59
2023-04-11T23:20:58.171Z,76522.69
2023-04-11T23:23:25.945Z,76516.59
2023-04-11T23:25:54.250Z,76522.69
2023-04-11T23:28:24.117Z,76532.91
2023-04-11T23:30:53.715Z,76536.97
2023-04-11T23:33:22.273Z,76534.94
2023-04-11T23:35:50.063Z,76534.94
2023-04-11T23:38:18.000Z,76539.00
2023-04-11T23:40:45.973Z,76547.16
2023-04-11T23:43:13.707Z,76563.47
2023-04-11T23:45:41.491Z,76563.47
2023-04-11T23:48:10.624Z,76579.78
2023-04-11T23:50:38.759Z,76579.78
2023-04-11T23:53:06.673Z,76585.91
2023-04-11T23:55:34.810Z,76592.03
2023-04-11T23:58:02.605Z,76596.09
